createdAt,value
2023-01-19T00:00:27.358Z,95928.25
2023-01-19T00:02:54.819Z,95932.31
2023-01-19T00:05:21.959Z,95929.47
2023-01-19T00:07:48.326Z,95944.56
2023-01-19T00:10:15.021Z,95928.47
2023-01-19T00:12:41.392Z,95936.66
2023-01-19T00:15:08.220Z,95929.31
2023-01-19T00:17:34.625Z,95929.31
2023-01-19T00:20:01.081Z,95939.59
2023-01-19T00:22:27.525Z,95935.72
2023-01-19T00:24:53.903Z,95937.97
2023-01-19T00:27:20.265Z,95944.69
2023-01-19T00:29:46.598Z,95941.88
2023-01-19T00:32:12.945Z,95944.13
2023-01-19T00:34:42.548Z,95956.63
2023-01-19T00:37:10.075Z,95955.09
2023-01-19T00:39:36.455Z,95962.13
2023-01-19T00:42:21.702Z,95946.78
2023-01-19T00:44:48.064Z,95964.63
2023-01-19T00:47:14.417Z,95973.00
2023-01-19T00:49:40.812Z,95969.53
2023-01-19T00:52:07.195Z,95963.16
2023-01-19T00:54:33.566Z,95958.88
2023-01-19T00:56:59.944Z,95976.47
2023-01-19T00:59:26.324Z,95952.75
2023-01-19T01:01:52.997Z,95958.41
2023-01-19T01:04:19.449Z,95965.50
2023-01-19T01:06:45.830Z,95967.59
2023-01-19T01:09:12.270Z,95969.13
2023-01-19T01:11:42.932Z,95972.72
2023-01-19T01:14:13.226Z,95976.47
2023-01-19T01:16:40.839Z,95978.50
2023-01-19T01:19:07.532Z,95983.53
2023-01-19T01:21:34.643Z,95989.38
2023-01-19T01:24:01.792Z,95979.38
2023-01-19T01:26:28.273Z,95983.94
2023-01-19T01:28:54.676Z,95979.66
2023-01-19T01:31:21.096Z,95992.38
2023-01-19T01:33:47.568Z,95992.41
2023-01-19T01:36:14.172Z,95987.84
2023-01-19T01:38:41.911Z,96003.38
2023-01-19T01:41:08.774Z,96009.97
2023-01-19T01:43:54.833Z,96007.16
2023-01-19T01:46:21.174Z,96011.69
2023-01-19T01:49:02.639Z,96016.38
2023-01-19T01:51:32.390Z,96022.00
2023-01-19T01:54:07.094Z,96019.59
2023-01-19T01:56:40.015Z,96020.69
2023-01-19T01:59:25.789Z,96022.00
2023-01-19T02:02:22.991Z,96024.84
2023-01-19T02:04:54.707Z,96022.13
2023-01-19T02:07:50.475Z,96021.44
2023-01-19T02:10:37.231Z,95993.47
2023-01-19T02:13:22.391Z,96001.16
2023-01-19T02:15:49.912Z,96006.06
2023-01-19T02:18:16.709Z,95996.91
2023-01-19T02:21:22.658Z,96005.09
2023-01-19T02:24:00.387Z,95984.97
2023-01-19T02:26:31.146Z,95992.16
2023-01-19T02:29:03.776Z,96003.38
2023-01-19T02:31:32.105Z,95999.28
2023-01-19T02:34:00.310Z,95998.03
2023-01-19T02:36:31.284Z,96000.59
2023-01-19T02:39:00.116Z,95981.75
2023-01-19T02:41:30.861Z,95994.50
2023-01-19T02:43:58.748Z,95985.34
2023-01-19T02:46:25.737Z,95985.59
2023-01-19T02:48:52.092Z,95985.34
2023-01-19T02:51:24.060Z,95975.41
2023-01-19T02:54:16.616Z,95989.94
2023-01-19T02:57:00.426Z,95990.47
2023-01-19T02:59:49.081Z,95992.50
2023-01-19T03:02:33.894Z,95982.53
2023-01-19T03:05:16.062Z,95987.13
2023-01-19T03:07:52.135Z,95965.75
2023-01-19T03:10:44.739Z,95990.44
2023-01-19T03:13:29.920Z,95987.91
2023-01-19T03:16:01.287Z,95964.19
2023-01-19T03:18:31.644Z,95989.19
2023-01-19T03:21:03.817Z,95973.59
2023-01-19T03:23:32.017Z,95976.88
2023-01-19T03:26:00.669Z,95979.41
2023-01-19T03:28:29.081Z,95987.31
2023-01-19T03:31:05.669Z,95970.75
2023-01-19T03:33:35.083Z,95985.28
2023-01-19T03:36:07.303Z,95980.69
2023-01-19T03:38:38.198Z,95983.22
2023-01-19T03:41:11.118Z,95975.88
2023-01-19T03:43:39.672Z,95966.44
2023-01-19T03:46:07.579Z,95982.25
2023-01-19T03:48:34.558Z,95988.63
2023-01-19T03:51:06.366Z,95988.34
2023-01-19T03:53:32.713Z,95974.06
2023-01-19T03:55:59.338Z,95987.03
2023-01-19T03:58:25.759Z,95985.25
2023-01-19T04:00:52.536Z,95986.25
2023-01-19T04:03:19.135Z,95992.63
2023-01-19T04:05:45.882Z,95994.94
2023-01-19T04:08:12.812Z,95980.16
2023-01-19T04:10:39.584Z,95993.69
2023-01-19T04:13:06.033Z,95988.81
2023-01-19T04:15:32.590Z,95997.72
2023-01-19T04:18:00.520Z,95991.41
2023-01-19T04:20:28.227Z,95992.66
2023-01-19T04:22:58.822Z,95990.63
2023-01-19T04:25:25.392Z,95992.41
2023-01-19T04:27:53.167Z,95993.94
2023-01-19T04:30:20.052Z,96000.03
2023-01-19T04:32:46.761Z,96001.59
2023-01-19T04:35:13.154Z,95976.63
2023-01-19T04:37:40.068Z,95990.88
2023-01-19T04:40:07.251Z,95993.94
2023-01-19T04:42:33.618Z,95996.75
2023-01-19T04:44:59.964Z,95998.53
2023-01-19T04:47:26.316Z,95996.50
2023-01-19T04:49:52.658Z,95995.47
2023-01-19T04:52:19.469Z,95995.97
2023-01-19T04:54:45.812Z,95999.06
2023-01-19T04:57:12.158Z,96001.06
2023-01-19T04:59:38.535Z,96005.69
2023-01-19T05:02:04.931Z,96010.75
2023-01-19T05:04:31.271Z,96004.66
2023-01-19T05:06:58.264Z,96003.38
2023-01-19T05:09:25.821Z,96005.66
2023-01-19T05:11:52.189Z,96005.16
2023-01-19T05:14:18.809Z,95993.69
2023-01-19T05:16:45.239Z,96019.47
2023-01-19T05:19:11.582Z,96006.47
2023-01-19T05:21:38.013Z,96008.50
2023-01-19T05:24:04.453Z,96016.94
2023-01-19T05:26:30.860Z,95997.59
2023-01-19T05:28:57.445Z,96013.66
2023-01-19T05:31:23.909Z,96011.34
2023-01-19T05:33:50.355Z,96014.66
2023-01-19T05:36:16.694Z,96012.16
2023-01-19T05:38:43.054Z,96015.19
2023-01-19T05:41:09.428Z,96026.66
2023-01-19T05:43:35.926Z,96029.72
2023-01-19T05:46:04.412Z,96009.34
2023-01-19T05:48:31.392Z,96022.84
2023-01-19T05:50:59.151Z,96021.81
2023-01-19T05:53:25.830Z,96027.94
2023-01-19T05:55:52.212Z,96023.38
2023-01-19T05:58:18.570Z,96035.34
2023-01-19T06:00:44.975Z,96038.91
2023-01-19T06:03:11.866Z,96031.75
2023-01-19T06:05:39.513Z,96049.09
2023-01-19T06:08:06.116Z,96047.31
2023-01-19T06:10:32.463Z,96051.41
2023-01-19T06:12:59.285Z,96048.34
2023-01-19T06:15:25.829Z,96045.00
2023-01-19T06:17:52.211Z,96058.03
2023-01-19T06:20:18.611Z,96058.28
2023-01-19T06:22:45.023Z,96057.78
2023-01-19T06:25:11.904Z,96073.09
2023-01-19T06:27:39.776Z,96060.34
2023-01-19T06:30:06.768Z,96056.25
2023-01-19T06:32:33.126Z,96061.34
2023-01-19T06:34:59.468Z,96074.59
2023-01-19T06:37:27.241Z,96077.66
2023-01-19T06:39:53.608Z,96065.94
2023-01-19T06:42:19.948Z,96072.31
2023-01-19T06:44:48.007Z,96061.84
2023-01-19T06:47:16.505Z,96069.75
2023-01-19T06:49:43.402Z,96059.31
2023-01-19T06:52:11.385Z,96078.94
2023-01-19T06:54:37.764Z,96079.69
2023-01-19T06:57:04.418Z,96073.31
2023-01-19T06:59:31.710Z,96074.34
2023-01-19T07:01:58.942Z,96074.09
2023-01-19T07:04:25.571Z,96091.19
2023-01-19T07:06:51.915Z,96085.84
2023-01-19T07:09:20.342Z,96085.81
2023-01-19T07:11:48.033Z,96094.72
2023-01-19T07:14:15.479Z,96095.00
2023-01-19T07:16:42.082Z,96091.41
2023-01-19T07:19:10.684Z,96091.94
2023-01-19T07:21:37.410Z,96094.22
2023-01-19T07:24:03.811Z,96077.13
2023-01-19T07:26:30.840Z,96087.56
2023-01-19T07:28:57.214Z,96081.19
2023-01-19T07:31:23.676Z,96074.84
2023-01-19T07:33:50.120Z,96073.56
2023-01-19T07:36:16.500Z,96080.41
2023-01-19T07:38:42.908Z,96087.81
2023-01-19T07:41:10.174Z,96087.06
2023-01-19T07:43:36.684Z,96078.84
2023-01-19T07:46:08.052Z,96077.88
2023-01-19T07:48:34.914Z,96088.56
2023-01-19T07:51:05.222Z,96087.56
2023-01-19T07:53:32.282Z,96075.03
2023-01-19T07:55:58.742Z,96077.84
2023-01-19T07:58:26.395Z,96082.47
2023-01-19T08:00:52.903Z,96087.84
2023-01-19T08:03:19.411Z,96088.34
2023-01-19T08:05:50.488Z,96091.88
2023-01-19T08:08:16.912Z,96105.69
2023-01-19T08:10:43.245Z,96110.78
2023-01-19T08:13:09.709Z,96098.81
2023-01-19T08:15:36.082Z,96112.56
2023-01-19T08:18:05.624Z,96117.94
2023-01-19T08:20:32.328Z,96113.13
2023-01-19T08:23:02.866Z,96102.91
2023-01-19T08:25:44.461Z,96108.53
2023-01-19T08:28:13.529Z,96114.16
2023-01-19T08:30:40.761Z,96121.53
2023-01-19T08:33:08.234Z,96115.69
2023-01-19T08:35:37.451Z,96123.06
2023-01-19T08:38:08.450Z,96121.00
2023-01-19T08:40:37.443Z,96128.84
2023-01-19T08:43:12.815Z,96109.44
2023-01-19T08:45:48.671Z,96129.97
2023-01-19T08:48:17.000Z,96126.41
2023-01-19T08:50:46.203Z,96139.41
2023-01-19T08:53:12.598Z,96135.59
2023-01-19T08:55:39.648Z,96143.00
2023-01-19T08:58:06.639Z,96142.22
2023-01-19T09:00:34.291Z,96138.09
2023-01-19T09:03:04.983Z,96133.00
2023-01-19T09:05:35.699Z,96130.22
2023-01-19T09:08:03.860Z,96138.09
2023-01-19T09:10:36.049Z,96135.81
2023-01-19T09:13:08.102Z,96130.47
2023-01-19T09:15:37.420Z,96141.69
2023-01-19T09:18:06.068Z,96145.56
2023-01-19T09:20:34.594Z,96147.38
2023-01-19T09:23:00.928Z,96142.25
2023-01-19T09:25:27.323Z,96151.22
2023-01-19T09:27:53.750Z,96136.63
2023-01-19T09:30:20.179Z,96138.47
2023-01-19T09:32:46.516Z,96153.81
2023-01-19T09:35:13.214Z,96144.84
2023-01-19T09:37:39.564Z,96149.41
2023-01-19T09:40:07.298Z,96141.00
2023-01-19T09:42:43.654Z,96156.56
2023-01-19T09:45:42.183Z,96154.03
2023-01-19T09:48:30.355Z,96158.66
2023-01-19T09:51:00.579Z,96155.09
2023-01-19T09:53:36.199Z,96162.97
2023-01-19T09:56:02.583Z,96153.56
2023-01-19T09:58:28.982Z,96164.03
2023-01-19T10:01:08.238Z,96160.72
2023-01-19T10:03:41.154Z,96151.53
2023-01-19T10:06:11.783Z,96166.06
2023-01-19T10:08:43.907Z,96161.50
2023-01-19T10:11:52.127Z,96160.72
2023-01-19T10:14:34.135Z,96156.38
2023-01-19T10:17:22.038Z,96157.63
2023-01-19T10:19:53.131Z,96166.56
2023-01-19T10:22:22.717Z,96165.03
2023-01-19T10:24:54.687Z,96159.19
2023-01-19T10:27:26.626Z,96157.94
2023-01-19T10:29:53.100Z,96166.84
2023-01-19T10:32:30.327Z,96158.69
2023-01-19T10:34:59.467Z,96161.75
2023-01-19T10:37:32.751Z,96166.56
2023-01-19T10:40:19.737Z,96169.13
2023-01-19T10:42:46.324Z,96157.84
2023-01-19T10:45:19.740Z,96155.03
2023-01-19T10:47:47.533Z,96159.63
2023-01-19T10:50:40.820Z,96159.41
2023-01-19T10:53:20.462Z,96160.94
2023-01-19T10:55:46.956Z,96160.16
2023-01-19T10:58:30.842Z,96160.22
2023-01-19T11:01:23.665Z,96155.84
2023-01-19T11:03:50.986Z,96158.63
2023-01-19T11:06:29.522Z,96147.19
2023-01-19T11:09:17.653Z,96155.06
2023-01-19T11:11:46.789Z,96156.31
2023-01-19T11:14:17.421Z,96158.63
2023-01-19T11:16:49.055Z,96169.84
2023-01-19T11:19:20.643Z,96159.81
2023-01-19T11:21:47.402Z,96147.84
2023-01-19T11:24:16.299Z,96153.75
2023-01-19T11:26:49.983Z,96155.47
2023-01-19T11:29:22.790Z,96158.75
2023-01-19T11:31:50.538Z,96153.16
2023-01-19T11:34:26.939Z,96155.94
2023-01-19T11:36:58.041Z,96147.25
2023-01-19T11:39:28.047Z,96155.41
2023-01-19T11:42:02.940Z,96149.03
2023-01-19T11:44:32.917Z,96151.31
2023-01-19T11:47:02.268Z,96147.22
2023-01-19T11:49:50.938Z,96158.47
2023-01-19T11:52:31.757Z,96157.38
2023-01-19T11:55:05.525Z,96162.72
2023-01-19T11:57:31.952Z,96154.53
2023-01-19T12:00:03.462Z,96146.41
2023-01-19T12:02:44.636Z,96159.69
2023-01-19T12:05:16.233Z,96156.34
2023-01-19T12:07:45.344Z,96157.09
2023-01-19T12:10:25.879Z,96161.47
2023-01-19T12:12:53.429Z,96160.50
2023-01-19T12:15:44.602Z,96154.16
2023-01-19T12:18:28.081Z,96142.66
2023-01-19T12:20:56.369Z,96135.00
2023-01-19T12:23:40.401Z,96150.81
2023-01-19T12:26:23.835Z,96132.97
2023-01-19T12:28:52.261Z,96142.66
2023-01-19T12:31:21.725Z,96143.19
2023-01-19T12:33:48.626Z,96147.75
2023-01-19T12:36:30.168Z,96144.94
2023-01-19T12:39:18.135Z,96139.03
2023-01-19T12:41:46.948Z,96145.38
2023-01-19T12:44:16.358Z,96150.75
2023-01-19T12:47:04.055Z,96139.75
2023-01-19T12:49:42.073Z,96142.59
2023-01-19T12:52:23.160Z,96136.00
2023-01-19T12:55:00.528Z,96138.53
2023-01-19T12:57:30.192Z,96154.34
2023-01-19T13:00:27.325Z,96148.72
2023-01-19T13:02:54.805Z,96146.91
2023-01-19T13:05:32.498Z,96151.25
2023-01-19T13:08:02.340Z,96150.00
2023-01-19T13:10:53.699Z,96157.94
2023-01-19T13:13:24.549Z,96144.16
2023-01-19T13:15:53.671Z,96139.59
2023-01-19T13:18:24.591Z,96140.13
2023-01-19T13:20:56.966Z,96153.09
2023-01-19T13:23:26.457Z,96139.09
2023-01-19T13:26:03.772Z,96155.94
2023-01-19T13:28:40.727Z,96160.28
2023-01-19T13:31:08.365Z,96143.47
2023-01-19T13:33:43.617Z,96152.16
2023-01-19T13:36:20.637Z,96152.63
2023-01-19T13:38:50.753Z,96143.94
2023-01-19T13:41:22.169Z,96159.03
2023-01-19T13:43:53.529Z,96151.66
2023-01-19T13:46:20.599Z,96163.41
2023-01-19T13:48:56.745Z,96161.13
2023-01-19T13:51:23.691Z,96159.31
2023-01-19T13:53:57.470Z,96165.69
2023-01-19T13:56:28.468Z,96156.28
2023-01-19T13:59:12.541Z,96176.66
2023-01-19T14:01:43.498Z,96176.94
2023-01-19T14:04:35.021Z,96170.06
2023-01-19T14:07:06.032Z,96169.31
2023-01-19T14:09:32.498Z,96188.19
2023-01-19T14:12:14.012Z,96186.16
2023-01-19T14:14:42.279Z,96182.34
2023-01-19T14:17:26.682Z,96189.72
2023-01-19T14:19:58.532Z,96196.13
2023-01-19T14:22:39.275Z,96199.94
2023-01-19T14:25:21.644Z,96200.19
2023-01-19T14:27:47.988Z,96197.91
2023-01-19T14:30:22.323Z,96193.06
2023-01-19T14:32:48.735Z,96208.09
2023-01-19T14:35:24.904Z,96197.66
2023-01-19T14:37:52.232Z,96207.09
2023-01-19T14:40:21.510Z,96202.75
2023-01-19T14:43:02.981Z,96214.25
2023-01-19T14:45:38.605Z,96209.91
2023-01-19T14:48:16.329Z,96206.38
2023-01-19T14:50:57.651Z,96213.25
2023-01-19T14:53:29.783Z,96202.53
2023-01-19T14:56:02.396Z,96223.97
2023-01-19T14:58:31.541Z,96220.91
2023-01-19T15:01:12.963Z,96210.72
2023-01-19T15:03:46.445Z,96204.59
2023-01-19T15:06:18.675Z,96226.06
2023-01-19T15:08:45.779Z,96216.06
2023-01-19T15:11:32.464Z,96224.25
2023-01-19T15:13:59.680Z,96221.72
2023-01-19T15:16:28.865Z,96227.06
2023-01-19T15:18:55.645Z,96231.16
2023-01-19T15:21:29.074Z,96222.72
2023-01-19T15:23:55.762Z,96226.53
2023-01-19T15:26:25.165Z,96229.09
2023-01-19T15:28:52.011Z,96231.66
2023-01-19T15:31:20.993Z,96229.59
2023-01-19T15:33:47.613Z,96232.72
2023-01-19T15:36:19.640Z,96230.41
2023-01-19T15:38:47.112Z,96241.38
2023-01-19T15:41:23.309Z,96242.66
2023-01-19T15:43:50.520Z,96233.72
2023-01-19T15:46:20.590Z,96234.50
2023-01-19T15:48:47.947Z,96227.09
2023-01-19T15:51:16.292Z,96240.88
2023-01-19T15:53:43.214Z,96235.03
2023-01-19T15:56:21.850Z,96249.06
2023-01-19T15:58:48.204Z,96239.63
2023-01-19T16:01:17.229Z,96248.03
2023-01-19T16:03:44.495Z,96249.31
2023-01-19T16:06:10.991Z,96248.06
2023-01-19T16:08:37.653Z,96258.22
2023-01-19T16:11:09.114Z,96237.81
2023-01-19T16:13:35.498Z,96258.72
2023-01-19T16:16:07.241Z,96254.94
2023-01-19T16:18:33.786Z,96265.94
2023-01-19T16:21:01.135Z,96251.13
2023-01-19T16:23:27.475Z,96269.28
2023-01-19T16:26:24.654Z,96269.53
2023-01-19T16:28:50.989Z,96265.47
2023-01-19T16:31:17.386Z,96276.69
2023-01-19T16:33:45.076Z,96270.31
2023-01-19T16:36:25.236Z,96286.41
2023-01-19T16:38:52.352Z,96276.19
2023-01-19T16:41:19.329Z,96283.63
2023-01-19T16:43:53.883Z,96273.63
2023-01-19T16:46:23.471Z,96271.06
2023-01-19T16:48:50.760Z,96264.44
2023-01-19T16:51:17.769Z,96274.91
2023-01-19T16:53:44.476Z,96283.34
2023-01-19T16:56:13.421Z,96277.97
2023-01-19T16:58:40.578Z,96285.38
2023-01-19T17:01:12.617Z,96275.44
2023-01-19T17:03:39.753Z,96285.09
2023-01-19T17:06:07.606Z,96276.66
2023-01-19T17:08:34.660Z,96285.84
2023-01-19T17:11:04.815Z,96274.66
2023-01-19T17:13:31.166Z,96293.53
2023-01-19T17:16:02.576Z,96285.38
2023-01-19T17:18:31.907Z,96281.56
2023-01-19T17:21:02.637Z,96284.59
2023-01-19T17:23:30.436Z,96293.06
2023-01-19T17:25:58.371Z,96283.06
2023-01-19T17:28:25.481Z,96278.75
2023-01-19T17:30:52.545Z,96288.97
2023-01-19T17:33:21.462Z,96277.50
2023-01-19T17:35:47.993Z,96281.81
2023-01-19T17:38:14.848Z,96288.72
2023-01-19T17:40:41.449Z,96281.88
2023-01-19T17:43:08.262Z,96291.56
2023-01-19T17:45:36.265Z,96295.13
2023-01-19T17:48:05.507Z,96303.31
2023-01-19T17:50:34.419Z,96294.38
2023-01-19T17:53:01.041Z,96304.31
2023-01-19T17:55:27.397Z,96302.81
2023-01-19T17:57:53.767Z,96290.53
2023-01-19T18:00:20.421Z,96307.91
2023-01-19T18:02:50.503Z,96309.44
2023-01-19T18:05:17.563Z,96309.44
2023-01-19T18:07:44.000Z,96302.28
2023-01-19T18:10:10.889Z,96309.44
2023-01-19T18:12:37.633Z,96308.91
2023-01-19T18:15:05.532Z,96331.63
2023-01-19T18:17:32.161Z,96328.56
2023-01-19T18:19:58.896Z,96317.78
2023-01-19T18:22:25.287Z,96319.56
2023-01-19T18:24:51.673Z,96309.56
2023-01-19T18:27:18.261Z,96321.53
2023-01-19T18:29:44.607Z,96315.09
2023-01-19T18:32:11.117Z,96334.22
2023-01-19T18:34:37.619Z,96321.75
2023-01-19T18:37:04.057Z,96330.13
2023-01-19T18:39:31.003Z,96327.53
2023-01-19T18:41:57.453Z,96318.53
2023-01-19T18:44:23.811Z,96335.16
2023-01-19T18:46:50.215Z,96319.06
2023-01-19T18:49:16.602Z,96329.75
2023-01-19T18:51:43.023Z,96321.72
2023-01-19T18:54:10.766Z,96335.84
2023-01-19T18:56:37.158Z,96341.63
2023-01-19T18:59:03.618Z,96333.97
2023-01-19T19:01:33.613Z,96342.31
2023-01-19T19:04:00.675Z,96333.91
2023-01-19T19:06:27.815Z,96341.31
2023-01-19T19:08:55.985Z,96332.34
2023-01-19T19:11:24.004Z,96341.88
2023-01-19T19:13:59.001Z,96336.75
2023-01-19T19:16:26.521Z,96335.41
2023-01-19T19:18:53.040Z,96342.44
2023-01-19T19:21:21.313Z,96333.44
2023-01-19T19:23:56.131Z,96346.25
2023-01-19T19:26:23.763Z,96336.19
2023-01-19T19:28:50.180Z,96337.72
2023-01-19T19:31:20.348Z,96339.78
2023-01-19T19:33:48.798Z,96348.88
2023-01-19T19:36:15.277Z,96347.56
2023-01-19T19:38:42.804Z,96348.13
2023-01-19T19:41:12.980Z,96344.25
2023-01-19T19:43:39.404Z,96353.84
2023-01-19T19:46:08.300Z,96354.66
2023-01-19T19:48:38.172Z,96359.50
2023-01-19T19:51:18.357Z,96365.72
2023-01-19T19:53:45.249Z,96367.72
2023-01-19T19:56:13.497Z,96366.19
2023-01-19T19:58:41.869Z,96362.84
2023-01-19T20:01:17.381Z,96368.72
2023-01-19T20:03:44.538Z,96369.56
2023-01-19T20:06:13.760Z,96359.91
2023-01-19T20:08:40.578Z,96360.66
2023-01-19T20:11:13.007Z,96363.00
2023-01-19T20:13:40.977Z,96378.34
2023-01-19T20:16:10.809Z,96366.13
2023-01-19T20:18:39.060Z,96373.78
2023-01-19T20:21:17.831Z,96374.84
2023-01-19T20:23:45.084Z,96366.38
2023-01-19T20:26:13.622Z,96372.00
2023-01-19T20:28:40.259Z,96376.34
2023-01-19T20:31:20.595Z,96385.28
2023-01-19T20:33:48.439Z,96383.00
2023-01-19T20:36:15.728Z,96387.81
2023-01-19T20:38:42.965Z,96378.34
2023-01-19T20:41:11.989Z,96388.03
2023-01-19T20:43:38.788Z,96381.88
2023-01-19T20:46:06.034Z,96387.44
2023-01-19T20:48:32.828Z,96390.50
2023-01-19T20:51:04.691Z,96394.03
2023-01-19T20:53:32.759Z,96390.13
2023-01-19T20:56:04.159Z,96400.31
2023-01-19T20:58:32.081Z,96398.38
2023-01-19T21:00:58.575Z,96395.81
2023-01-19T21:03:25.325Z,96400.19
2023-01-19T21:05:51.749Z,96395.09
2023-01-19T21:08:18.238Z,96401.47
2023-01-19T21:10:45.477Z,96414.44
2023-01-19T21:13:11.871Z,96404.41
2023-01-19T21:15:38.268Z,96409.44
2023-01-19T21:18:04.658Z,96416.56
2023-01-19T21:20:31.214Z,96410.84
2023-01-19T21:22:58.829Z,96409.78
2023-01-19T21:25:25.198Z,96413.00
2023-01-19T21:27:51.607Z,96427.75
2023-01-19T21:30:18.552Z,96417.75
2023-01-19T21:32:44.923Z,96426.69
2023-01-19T21:35:11.467Z,96421.72
2023-01-19T21:37:37.976Z,96436.59
2023-01-19T21:40:04.876Z,96436.50
2023-01-19T21:42:31.230Z,96433.19
2023-01-19T21:44:57.607Z,96442.66
2023-01-19T21:47:23.961Z,96439.00
2023-01-19T21:49:50.379Z,96434.97
2023-01-19T21:52:16.766Z,96436.88
2023-01-19T21:54:43.369Z,96442.94
2023-01-19T21:57:09.793Z,96434.38
2023-01-19T21:59:36.148Z,96446.56
2023-01-19T22:02:02.739Z,96438.66
2023-01-19T22:04:29.733Z,96451.09
2023-01-19T22:06:56.069Z,96447.81
2023-01-19T22:09:22.433Z,96437.28
2023-01-19T22:11:48.774Z,96456.44
2023-01-19T22:14:16.084Z,96440.91
2023-01-19T22:16:42.491Z,96455.78
2023-01-19T22:19:12.570Z,96458.84
2023-01-19T22:21:39.598Z,96454.41
2023-01-19T22:24:06.488Z,96446.16
2023-01-19T22:26:34.108Z,96471.94
2023-01-19T22:29:01.664Z,96463.25
2023-01-19T22:31:29.426Z,96481.88
2023-01-19T22:33:56.379Z,96468.41
2023-01-19T22:36:26.982Z,96484.13
2023-01-19T22:38:57.746Z,96482.25
2023-01-19T22:41:30.317Z,96477.88
2023-01-19T22:43:58.854Z,96471.56
2023-01-19T22:46:27.974Z,96484.97
2023-01-19T22:48:55.303Z,96478.78
2023-01-19T22:51:23.018Z,96485.66
2023-01-19T22:53:49.807Z,96482.28
2023-01-19T22:56:22.176Z,96466.41
2023-01-19T22:58:49.280Z,96478.16
2023-01-19T23:01:30.474Z,96471.84
2023-01-19T23:03:57.045Z,96470.13
2023-01-19T23:06:29.168Z,96476.84
2023-01-19T23:08:57.484Z,96489.47
2023-01-19T23:11:27.641Z,96489.31
2023-01-19T23:13:54.317Z,96488.44
2023-01-19T23:16:21.583Z,96497.28
2023-01-19T23:18:51.726Z,96499.50
2023-01-19T23:21:21.096Z,96492.56
2023-01-19T23:23:47.697Z,96499.84
2023-01-19T23:26:18.835Z,96497.81
2023-01-19T23:28:46.798Z,96498.69
2023-01-19T23:31:24.798Z,96491.19
2023-01-19T23:33:53.397Z,96502.53
2023-01-19T23:36:21.928Z,96497.53
2023-01-19T23:38:59.485Z,96506.59
2023-01-19T23:41:28.648Z,96509.97
2023-01-19T23:43:54.998Z,96509.69
2023-01-19T23:46:22.132Z,96514.44
2023-01-19T23:48:49.152Z,96505.63
2023-01-19T23:51:18.605Z,96506.69
2023-01-19T23:53:45.747Z,96505.34
2023-01-19T23:56:21.561Z,96502.25
2023-01-19T23:58:56.443Z,96519.13
